createdAt,value
2018-06-10T00:01:32.012Z,100023.50
2018-06-10T00:03:59.893Z,100019.80
2018-06-10T00:06:27.813Z,100020.59
2018-06-10T00:08:55.657Z,100023.65
2018-06-10T00:11:23.657Z,100023.46
2018-06-10T00:13:51.569Z,100021.41
2018-06-10T00:16:19.489Z,100020.31
2018-06-10T00:18:47.452Z,100020.94
2018-06-10T00:21:15.233Z,100019.48
2018-06-10T00:23:47.051Z,100027.72
2018-06-10T00:26:14.924Z,100022.39
2018-06-10T00:29:47.958Z,100024.84
2018-06-10T00:32:15.822Z,100028.86
2018-06-10T00:34:43.679Z,100027.63
2018-06-10T00:37:11.583Z,100030.50
2018-06-10T00:39:39.426Z,100019.72
2018-06-10T00:42:07.325Z,100028.38
2018-06-10T00:44:36.600Z,100027.72
2018-06-10T00:47:04.788Z,100028.23
2018-06-10T00:49:32.643Z,100028.77
2018-06-10T00:52:00.508Z,100033.74
2018-06-10T00:54:28.426Z,100038.81
2018-06-10T00:56:56.325Z,100036.10
2018-06-10T00:59:24.221Z,100042.31
2018-06-10T01:01:52.141Z,100042.62
2018-06-10T01:04:20.017Z,100041.36
2018-06-10T01:06:47.932Z,100037.17
2018-06-10T01:09:15.908Z,100046.38
2018-06-10T01:11:43.727Z,100041.52
2018-06-10T01:14:11.671Z,100043.32
2018-06-10T01:16:39.570Z,100043.38
2018-06-10T01:19:07.456Z,100039.56
2018-06-10T01:21:35.343Z,100039.72
2018-06-10T01:24:03.281Z,100039.72
2018-06-10T01:26:36.757Z,100042.61
2018-06-10T01:29:04.633Z,100038.98
2018-06-10T01:31:32.489Z,100039.35
2018-06-10T01:34:00.385Z,100039.38
2018-06-10T01:36:28.232Z,100038.53
2018-06-10T01:38:56.189Z,100051.83
2018-06-10T01:41:24.137Z,100041.31
2018-06-10T01:43:52.033Z,100044.90
2018-06-10T01:46:19.977Z,100042.16
2018-06-10T01:48:47.843Z,100032.93
2018-06-10T01:51:15.781Z,100037.59
2018-06-10T01:53:43.638Z,100025.49
2018-06-10T01:56:11.481Z,100026.56
2018-06-10T01:58:39.349Z,100017.69
2018-06-10T02:01:07.164Z,100017.12
2018-06-10T02:03:34.974Z,100010.44
2018-06-10T02:06:02.952Z,100004.89
2018-06-10T02:08:33.665Z,100006.28
2018-06-10T02:11:01.621Z,100004.61
2018-06-10T02:13:29.540Z,100002.34
2018-06-10T02:15:57.450Z,99997.15
2018-06-10T02:18:25.344Z,99998.28
2018-06-10T02:20:53.201Z,100003.88
2018-06-10T02:23:21.049Z,100003.00
2018-06-10T02:25:48.954Z,100004.08
2018-06-10T02:28:16.824Z,100004.33
2018-06-10T02:30:44.744Z,100004.08
2018-06-10T02:33:12.613Z,100003.51
2018-06-10T02:35:41.261Z,100001.27
2018-06-10T02:38:09.155Z,100006.84
2018-06-10T02:40:37.118Z,100014.66
2018-06-10T02:43:05.076Z,100008.55
2018-06-10T02:45:32.932Z,100005.18
2018-06-10T02:48:00.773Z,100011.66
2018-06-10T02:50:34.082Z,100004.20
2018-06-10T02:53:02.027Z,100007.48
2018-06-10T02:55:30.031Z,100009.74
2018-06-10T02:57:57.940Z,100006.69
2018-06-10T03:00:25.834Z,100007.38
2018-06-10T03:02:53.678Z,100003.66
2018-06-10T03:05:21.540Z,100006.23
2018-06-10T03:07:49.566Z,100002.59
2018-06-10T03:10:17.421Z,100003.63
2018-06-10T03:12:45.326Z,100007.88
2018-06-10T03:15:13.142Z,100002.36
2018-06-10T03:17:41.046Z,99998.52
2018-06-10T03:20:08.877Z,99999.34
2018-06-10T03:22:38.054Z,100005.13
2018-06-10T03:25:05.921Z,100001.52
2018-06-10T03:27:33.841Z,99994.36
2018-06-10T03:30:01.816Z,99996.48
2018-06-10T03:32:29.652Z,99998.91
2018-06-10T03:34:57.529Z,99990.62
2018-06-10T03:37:25.397Z,99995.03
2018-06-10T03:39:53.283Z,100006.66
2018-06-10T03:42:21.145Z,100003.34
2018-06-10T03:44:49.077Z,100000.73
2018-06-10T03:47:17.023Z,100001.84
2018-06-10T03:49:44.874Z,99998.28
2018-06-10T03:52:12.773Z,99998.69
2018-06-10T03:54:41.606Z,99993.72
2018-06-10T03:57:09.489Z,99997.41
2018-06-10T03:59:37.360Z,99996.59
2018-06-10T04:02:05.437Z,99996.91
2018-06-10T04:04:33.289Z,99995.89
2018-06-10T04:07:01.222Z,99992.33
2018-06-10T04:09:29.963Z,99996.74
2018-06-10T04:11:57.916Z,99993.97
2018-06-10T04:14:26.489Z,99997.72
2018-06-10T04:16:56.556Z,100004.37
2018-06-10T04:19:24.997Z,100013.44
2018-06-10T04:21:53.304Z,100008.72
2018-06-10T04:24:21.681Z,99999.77
2018-06-10T04:26:50.302Z,100006.98
2018-06-10T04:29:19.056Z,100005.75
2018-06-10T04:31:48.617Z,100010.26
2018-06-10T04:34:16.889Z,100006.28
2018-06-10T04:36:45.348Z,100008.14
2018-06-10T04:39:13.640Z,100015.30
2018-06-10T04:41:42.177Z,100010.72
2018-06-10T04:44:10.857Z,100014.05
2018-06-10T04:46:39.389Z,100014.24
2018-06-10T04:49:07.955Z,100014.98
2018-06-10T04:51:36.972Z,100009.38
2018-06-10T04:54:04.874Z,100016.14
2018-06-10T04:56:34.147Z,100011.77
2018-06-10T04:59:02.920Z,100015.86
2018-06-10T05:01:30.827Z,100018.98
2018-06-10T05:03:59.185Z,100013.47
2018-06-10T05:06:27.621Z,100014.00
2018-06-10T05:08:55.908Z,100021.67
2018-06-10T05:11:23.979Z,100018.56
2018-06-10T05:13:53.204Z,100016.98
2018-06-10T05:16:21.197Z,100013.52
2018-06-10T05:18:49.077Z,100018.83
2018-06-10T05:21:16.917Z,100013.84
2018-06-10T05:23:44.808Z,100015.25
2018-06-10T05:26:12.801Z,100009.77
2018-06-10T05:28:40.669Z,100012.47
2018-06-10T05:31:08.601Z,100012.66
2018-06-10T05:33:36.523Z,100009.48
2018-06-10T05:36:04.813Z,100006.70
2018-06-10T05:38:33.201Z,100017.62
2018-06-10T05:41:01.063Z,100021.58
2018-06-10T05:43:28.929Z,100027.78
2018-06-10T05:45:58.256Z,100018.05
2018-06-10T05:48:27.014Z,100018.88
2018-06-10T05:50:54.945Z,100028.44
2018-06-10T05:53:22.813Z,100032.70
2018-06-10T05:55:51.242Z,100029.17
2018-06-10T05:58:20.490Z,100025.70
2018-06-10T06:00:48.353Z,100030.16
2018-06-10T06:03:16.984Z,100031.09
2018-06-10T06:05:44.964Z,100033.83
2018-06-10T06:08:12.865Z,100038.38
2018-06-10T06:10:42.360Z,100036.33
2018-06-10T06:13:14.420Z,100044.88
2018-06-10T06:15:43.937Z,100047.27
2018-06-10T06:18:12.106Z,100048.21
2018-06-10T06:20:40.225Z,100049.95
2018-06-10T06:23:09.353Z,100049.77
2018-06-10T06:25:40.809Z,100049.20
2018-06-10T06:28:18.335Z,100051.32
2018-06-10T06:30:47.060Z,100057.90
2018-06-10T06:33:15.210Z,100054.05
2018-06-10T06:35:43.070Z,100052.91
2018-06-10T06:38:10.971Z,100047.20
2018-06-10T06:40:42.858Z,100055.22
2018-06-10T06:43:10.766Z,100051.10
2018-06-10T06:45:38.745Z,100047.91
2018-06-10T06:48:06.569Z,100060.19
2018-06-10T06:50:34.442Z,100055.63
2018-06-10T06:53:02.297Z,100050.83
2018-06-10T06:55:30.144Z,100047.69
2018-06-10T06:57:58.015Z,100047.20
2018-06-10T07:00:25.897Z,100050.22
2018-06-10T07:02:53.778Z,100048.97
2018-06-10T07:05:22.101Z,100050.55
2018-06-10T07:07:50.030Z,100057.09
2018-06-10T07:10:17.947Z,100062.25
2018-06-10T07:12:45.824Z,100066.66
2018-06-10T07:15:13.669Z,100064.45
2018-06-10T07:17:41.573Z,100059.95
2018-06-10T07:20:09.465Z,100060.45
2018-06-10T07:22:37.412Z,100055.52
2018-06-10T07:25:05.380Z,100055.17
2018-06-10T07:27:33.208Z,100058.70
2018-06-10T07:30:01.124Z,100057.91
2018-06-10T07:32:30.483Z,100063.05
2018-06-10T07:34:58.381Z,100068.84
2018-06-10T07:37:26.309Z,100064.58
2018-06-10T07:39:54.097Z,100065.70
2018-06-10T07:42:21.977Z,100059.75
2018-06-10T07:44:49.849Z,100065.61
2018-06-10T07:47:17.700Z,100066.84
2018-06-10T07:49:45.600Z,100068.34
2018-06-10T07:52:13.418Z,100064.73
2018-06-10T07:54:41.221Z,100063.45
2018-06-10T07:57:09.109Z,100048.70
2018-06-10T07:59:37.000Z,100052.53
2018-06-10T08:02:04.964Z,100053.81
2018-06-10T08:04:35.477Z,100050.89
2018-06-10T08:07:03.349Z,100056.55
2018-06-10T08:09:31.215Z,100048.08
2018-06-10T08:11:59.175Z,100046.38
2018-06-10T08:14:27.299Z,100041.33
2018-06-10T08:16:56.581Z,100043.52
2018-06-10T08:19:25.272Z,100038.20
2018-06-10T08:21:53.639Z,100032.20
2018-06-10T08:24:22.186Z,100029.55
2018-06-10T08:26:50.549Z,100025.45
2018-06-10T08:29:19.153Z,100033.20
2018-06-10T08:31:47.596Z,100019.35
2018-06-10T08:34:16.069Z,100023.38
2018-06-10T08:36:45.384Z,100020.41
2018-06-10T08:39:13.956Z,100017.92
2018-06-10T08:41:42.037Z,100018.06
2018-06-10T08:44:11.700Z,100022.06
2018-06-10T08:46:39.561Z,100021.78
2018-06-10T08:49:08.641Z,100019.31
2018-06-10T08:51:36.716Z,100013.45
2018-06-10T08:54:05.198Z,100011.30
2018-06-10T08:56:33.677Z,100010.64
2018-06-10T08:59:01.824Z,100009.40
2018-06-10T09:01:30.242Z,100015.38
2018-06-10T09:03:58.816Z,100014.33
2018-06-10T09:06:27.529Z,100011.08
2018-06-10T09:08:56.291Z,100018.19
2018-06-10T09:11:24.769Z,100006.76
2018-06-10T09:13:53.216Z,100013.37
2018-06-10T09:16:22.573Z,100018.41
2018-06-10T09:18:51.361Z,100013.52
2018-06-10T09:21:19.432Z,100024.02
2018-06-10T09:23:48.736Z,100021.25
2018-06-10T09:26:17.773Z,100021.27
2018-06-10T09:28:45.800Z,100021.06
2018-06-10T09:31:14.405Z,100018.59
2018-06-10T09:33:42.659Z,100012.31
2018-06-10T09:36:11.039Z,100011.14
2018-06-10T09:38:40.947Z,100008.56
2018-06-10T09:41:10.063Z,100001.08
2018-06-10T09:43:39.957Z,100003.42
2018-06-10T09:46:08.114Z,100000.44
2018-06-10T09:48:40.268Z,100004.16
2018-06-10T09:51:08.501Z,100009.11
2018-06-10T09:53:37.126Z,100005.77
2018-06-10T09:56:06.457Z,100006.08
2018-06-10T09:58:34.968Z,99999.22
2018-06-10T10:01:04.025Z,100003.05
2018-06-10T10:03:32.234Z,100004.56
2018-06-10T10:06:00.993Z,99999.72
2018-06-10T10:08:29.950Z,99999.59
2018-06-10T10:10:58.255Z,99999.55
2018-06-10T10:13:27.029Z,99994.86
2018-06-10T10:15:55.765Z,99996.09
2018-06-10T10:18:24.045Z,99988.67
2018-06-10T10:20:53.467Z,99993.50
2018-06-10T10:23:22.055Z,99990.08
2018-06-10T10:25:56.279Z,99989.88
2018-06-10T10:28:25.101Z,99986.91
2018-06-10T10:30:53.655Z,99978.86
2018-06-10T10:33:21.613Z,99975.23
2018-06-10T10:35:51.752Z,99970.03
2018-06-10T10:38:22.860Z,99973.16
2018-06-10T10:40:51.645Z,99963.61
2018-06-10T10:43:19.789Z,99961.63
2018-06-10T10:45:48.863Z,99961.86
2018-06-10T10:48:17.208Z,99960.81
2018-06-10T10:50:45.485Z,99955.61
2018-06-10T10:53:13.798Z,99949.05
2018-06-10T10:55:41.883Z,99946.22
2018-06-10T10:58:09.831Z,99946.20
2018-06-10T11:00:38.469Z,99939.63
2018-06-10T11:03:07.385Z,99939.48
2018-06-10T11:05:35.570Z,99937.88
2018-06-10T11:08:04.601Z,99937.70
2018-06-10T11:10:32.558Z,99935.09
2018-06-10T11:13:01.471Z,99926.30
2018-06-10T11:15:30.477Z,99935.78
2018-06-10T11:17:58.672Z,99939.97
2018-06-10T11:20:26.868Z,99931.44
2018-06-10T11:22:59.710Z,99930.38
2018-06-10T11:25:31.733Z,99925.53
2018-06-10T11:28:03.436Z,99927.17
2018-06-10T11:30:37.395Z,99924.41
2018-06-10T11:33:05.904Z,99932.72
2018-06-10T11:35:34.116Z,99930.35
2018-06-10T11:38:03.162Z,99929.39
2018-06-10T11:40:31.184Z,99926.70
2018-06-10T11:43:00.062Z,99915.84
2018-06-10T11:45:29.114Z,99920.84
2018-06-10T11:47:57.149Z,99922.30
2018-06-10T11:50:26.323Z,99907.48
2018-06-10T11:52:54.420Z,99909.56
2018-06-10T11:55:23.717Z,99907.33
2018-06-10T11:57:52.849Z,99908.63
2018-06-10T12:00:21.160Z,99901.19
2018-06-10T12:02:50.142Z,99896.66
2018-06-10T12:05:18.606Z,99892.72
2018-06-10T12:07:46.733Z,99887.91
2018-06-10T12:10:15.040Z,99887.13
2018-06-10T12:12:44.281Z,99886.52
2018-06-10T12:15:12.370Z,99884.70
2018-06-10T12:17:40.724Z,99883.41
2018-06-10T12:20:08.580Z,99880.14
2018-06-10T12:22:36.891Z,99891.63
2018-06-10T12:25:06.197Z,99894.97
2018-06-10T12:27:34.277Z,99894.08
2018-06-10T12:30:02.576Z,99898.72
2018-06-10T12:32:33.617Z,99898.62
2018-06-10T12:35:02.210Z,99897.61
2018-06-10T12:37:30.686Z,99898.62
2018-06-10T12:39:59.412Z,99889.56
2018-06-10T12:42:27.781Z,99892.55
2018-06-10T12:44:55.837Z,99890.06
2018-06-10T12:47:25.262Z,99894.41
2018-06-10T12:49:53.832Z,99888.32
2018-06-10T12:52:22.874Z,99881.18
2018-06-10T12:54:51.485Z,99877.06
2018-06-10T12:57:20.107Z,99878.98
2018-06-10T12:59:49.064Z,99879.73
2018-06-10T13:02:17.386Z,99883.88
2018-06-10T13:04:45.185Z,99873.34
2018-06-10T13:07:13.092Z,99880.67
2018-06-10T13:09:41.022Z,99871.59
2018-06-10T13:12:08.852Z,99888.03
2018-06-10T13:14:36.684Z,99883.28
2018-06-10T13:17:05.028Z,99874.01
2018-06-10T13:19:32.829Z,99879.64
2018-06-10T13:22:00.681Z,99887.98
2018-06-10T13:24:28.552Z,99885.22
2018-06-10T13:26:56.455Z,99887.41
2018-06-10T13:29:24.267Z,99889.59
2018-06-10T13:31:52.246Z,99881.89
2018-06-10T13:34:20.131Z,99884.93
2018-06-10T13:36:48.033Z,99882.25
2018-06-10T13:39:15.889Z,99886.34
2018-06-10T13:41:43.705Z,99884.02
2018-06-10T13:44:11.605Z,99884.29
2018-06-10T13:46:39.473Z,99881.68
2018-06-10T13:49:07.408Z,99878.03
2018-06-10T13:51:35.320Z,99864.61
2018-06-10T13:54:03.217Z,99874.58
2018-06-10T13:56:31.134Z,99874.73
2018-06-10T13:58:58.977Z,99874.08
2018-06-10T14:01:26.853Z,99868.86
2018-06-10T14:03:54.725Z,99864.98
2018-06-10T14:06:22.611Z,99863.76
2018-06-10T14:08:50.449Z,99853.63
2018-06-10T14:11:18.371Z,99856.17
2018-06-10T14:13:46.185Z,99855.30
2018-06-10T14:16:13.980Z,99858.27
2018-06-10T14:18:41.875Z,99850.04
2018-06-10T14:21:09.745Z,99844.59
2018-06-10T14:23:37.602Z,99844.65
2018-06-10T14:26:05.535Z,99849.27
2018-06-10T14:28:33.404Z,99849.09
2018-06-10T14:31:01.321Z,99840.00
2018-06-10T14:33:29.133Z,99834.33
2018-06-10T14:35:56.942Z,99837.95
2018-06-10T14:38:24.786Z,99833.52
2018-06-10T14:40:56.557Z,99830.07
2018-06-10T14:43:26.625Z,99831.70
2018-06-10T14:45:54.453Z,99821.98
2018-06-10T14:48:24.812Z,99823.20
2018-06-10T14:50:59.625Z,99822.58
2018-06-10T14:53:27.501Z,99825.41
2018-06-10T14:56:00.861Z,99822.79
2018-06-10T14:58:29.939Z,99825.42
2018-06-10T15:00:59.505Z,99820.38
2018-06-10T15:03:27.349Z,99823.81
2018-06-10T15:05:57.569Z,99822.58
2018-06-10T15:08:25.473Z,99823.80
2018-06-10T15:10:53.338Z,99823.19
2018-06-10T15:13:21.201Z,99820.16
2018-06-10T15:15:49.137Z,99820.95
2018-06-10T15:18:17.059Z,99824.01
2018-06-10T15:20:44.975Z,99813.69
2018-06-10T15:23:15.422Z,99816.92
2018-06-10T15:25:43.352Z,99813.88
2018-06-10T15:28:11.276Z,99812.45
2018-06-10T15:30:39.096Z,99810.23
2018-06-10T15:33:07.025Z,99798.52
2018-06-10T15:35:34.876Z,99789.41
2018-06-10T15:38:02.917Z,99791.60
2018-06-10T15:40:30.854Z,99788.34
2018-06-10T15:42:58.736Z,99784.29
2018-06-10T15:45:26.703Z,99784.68
2018-06-10T15:47:54.636Z,99790.31
2018-06-10T15:50:22.571Z,99788.68
2018-06-10T15:52:51.609Z,99785.20
2018-06-10T15:55:19.458Z,99776.84
2018-06-10T15:57:47.317Z,99784.89
2018-06-10T16:00:15.402Z,99782.67
2018-06-10T16:02:43.269Z,99779.22
2018-06-10T16:05:12.152Z,99776.79
2018-06-10T16:07:40.329Z,99791.50
2018-06-10T16:10:08.545Z,99792.02
2018-06-10T16:12:36.469Z,99780.87
2018-06-10T16:15:05.298Z,99780.10
2018-06-10T16:17:34.213Z,99778.14
2018-06-10T16:20:02.142Z,99777.94
2018-06-10T16:22:30.265Z,99781.52
2018-06-10T16:24:58.106Z,99778.48
2018-06-10T16:27:25.993Z,99782.72
2018-06-10T16:29:53.864Z,99789.55
2018-06-10T16:32:21.707Z,99795.78
2018-06-10T16:34:49.574Z,99789.84
2018-06-10T16:37:17.492Z,99785.23
2018-06-10T16:39:45.327Z,99787.41
2018-06-10T16:42:13.346Z,99783.58
2018-06-10T16:44:41.198Z,99791.61
2018-06-10T16:47:09.645Z,99796.20
2018-06-10T16:49:38.147Z,99802.30
2018-06-10T16:52:06.081Z,99793.17
2018-06-10T16:54:34.255Z,99802.00
2018-06-10T16:57:02.224Z,99787.16
2018-06-10T16:59:30.157Z,99787.09
2018-06-10T17:01:58.138Z,99800.82
2018-06-10T17:04:25.956Z,99797.63
2018-06-10T17:06:54.117Z,99796.17
2018-06-10T17:09:22.050Z,99795.30
2018-06-10T17:11:50.021Z,99803.98
2018-06-10T17:14:17.877Z,99804.06
2018-06-10T17:16:48.351Z,99805.20
2018-06-10T17:19:16.546Z,99804.40
2018-06-10T17:21:44.571Z,99807.17
2018-06-10T17:24:12.537Z,99810.59
2018-06-10T17:26:40.600Z,99807.50
2018-06-10T17:29:08.495Z,99807.50
2018-06-10T17:31:36.446Z,99809.92
2018-06-10T17:34:06.350Z,99808.91
2018-06-10T17:36:35.640Z,99811.08
2018-06-10T17:39:06.765Z,99811.22
2018-06-10T17:41:34.657Z,99802.70
2018-06-10T17:44:06.461Z,99809.08
2018-06-10T17:46:34.399Z,99802.21
2018-06-10T17:49:04.274Z,99798.97
2018-06-10T17:51:33.971Z,99799.86
2018-06-10T17:54:02.373Z,99794.95
2018-06-10T17:56:30.417Z,99788.42
2018-06-10T17:58:58.751Z,99789.56
2018-06-10T18:01:26.705Z,99790.83
2018-06-10T18:03:54.593Z,99784.51
2018-06-10T18:06:22.453Z,99776.80
2018-06-10T18:08:50.342Z,99784.23
2018-06-10T18:11:22.685Z,99790.41
2018-06-10T18:13:50.710Z,99782.46
2018-06-10T18:16:18.755Z,99782.99
2018-06-10T18:18:46.662Z,99787.78
2018-06-10T18:21:14.611Z,99793.31
2018-06-10T18:23:42.388Z,99805.53
2018-06-10T18:26:10.249Z,99814.52
2018-06-10T18:28:38.188Z,99820.06
2018-06-10T18:31:06.169Z,99833.78
2018-06-10T18:33:34.157Z,99829.95
2018-06-10T18:36:02.186Z,99830.65
2018-06-10T18:38:30.087Z,99844.38
2018-06-10T18:40:58.318Z,99851.59
2018-06-10T18:43:26.189Z,99854.11
2018-06-10T18:45:54.323Z,99865.31
2018-06-10T18:48:22.146Z,99861.06
2018-06-10T18:50:50.110Z,99855.42
2018-06-10T18:53:18.048Z,99864.33
2018-06-10T18:55:46.106Z,99869.48
2018-06-10T18:58:14.038Z,99877.59
2018-06-10T19:00:41.927Z,99886.03
2018-06-10T19:03:18.680Z,99874.46
2018-06-10T19:05:55.071Z,99864.72
2018-06-10T19:08:25.745Z,99863.70
2018-06-10T19:10:53.605Z,99863.34
2018-06-10T19:13:21.600Z,99861.03
2018-06-10T19:15:49.546Z,99866.98
2018-06-10T19:18:17.451Z,99865.88
2018-06-10T19:20:45.383Z,99867.89
2018-06-10T19:23:13.270Z,99876.75
2018-06-10T19:25:41.153Z,99881.61
2018-06-10T19:28:08.974Z,99886.30
2018-06-10T19:30:36.770Z,99892.55
2018-06-10T19:33:04.915Z,99883.63
2018-06-10T19:35:36.669Z,99889.11
2018-06-10T19:38:08.196Z,99895.74
2018-06-10T19:40:36.234Z,99899.84
2018-06-10T19:43:04.070Z,99898.28
2018-06-10T19:45:31.981Z,99904.48
2018-06-10T19:47:59.857Z,99904.11
2018-06-10T19:50:27.721Z,99909.02
2018-06-10T19:52:55.661Z,99918.63
2018-06-10T19:55:23.502Z,99922.03
2018-06-10T19:57:51.354Z,99925.53
2018-06-10T20:00:19.284Z,99933.42
2018-06-10T20:02:47.192Z,99938.17
2018-06-10T20:05:15.097Z,99937.16
2018-06-10T20:07:42.945Z,99943.98
2018-06-10T20:10:10.797Z,99942.55
2018-06-10T20:12:38.721Z,99937.94
2018-06-10T20:15:06.689Z,99940.15
2018-06-10T20:17:34.485Z,99955.73
2018-06-10T20:20:02.477Z,99949.45
2018-06-10T20:22:30.823Z,99948.67
2018-06-10T20:24:58.649Z,99953.60
2018-06-10T20:27:26.623Z,99955.71
2018-06-10T20:29:54.519Z,99961.53
2018-06-10T20:32:22.910Z,99956.70
2018-06-10T20:34:50.897Z,99961.74
2018-06-10T20:37:19.425Z,99960.88
2018-06-10T20:39:47.321Z,99968.62
2018-06-10T20:42:15.432Z,99969.43
2018-06-10T20:44:43.465Z,99963.39
2018-06-10T20:47:12.528Z,99965.33
2018-06-10T20:49:47.563Z,99963.48
2018-06-10T20:52:15.947Z,99954.73
2018-06-10T20:54:53.563Z,99944.81
2018-06-10T20:57:22.505Z,99956.88
2018-06-10T20:59:50.602Z,99955.16
2018-06-10T21:02:18.492Z,99957.28
2018-06-10T21:04:46.509Z,99963.17
2018-06-10T21:07:14.509Z,99977.10
2018-06-10T21:09:42.404Z,99982.10
2018-06-10T21:12:11.416Z,99983.27
2018-06-10T21:14:39.336Z,99978.93
2018-06-10T21:17:07.180Z,99974.00
2018-06-10T21:19:35.113Z,99976.32
2018-06-10T21:22:06.026Z,99976.98
2018-06-10T21:24:33.974Z,99983.17
2018-06-10T21:27:01.846Z,99987.50
2018-06-10T21:29:29.841Z,99999.22
2018-06-10T21:31:57.706Z,99995.11
2018-06-10T21:34:25.500Z,99998.08
2018-06-10T21:36:53.433Z,100009.70
2018-06-10T21:39:21.272Z,100016.96
2018-06-10T21:41:49.402Z,100026.31
2018-06-10T21:44:17.272Z,100021.95
2018-06-10T21:46:45.188Z,100019.84
2018-06-10T21:49:13.261Z,100009.80
2018-06-10T21:51:41.349Z,100009.22
2018-06-10T21:54:09.681Z,100012.91
2018-06-10T21:56:38.869Z,100013.21
2018-06-10T21:59:10.037Z,100018.06
2018-06-10T22:01:38.105Z,100016.48
2018-06-10T22:04:06.009Z,100009.38
2018-06-10T22:06:33.901Z,100002.25
2018-06-10T22:09:01.876Z,100000.53
2018-06-10T22:11:29.765Z,99993.96
2018-06-10T22:13:57.961Z,99998.80
2018-06-10T22:16:25.841Z,99999.71
2018-06-10T22:18:53.776Z,100007.70
2018-06-10T22:21:21.715Z,100007.39
2018-06-10T22:23:49.614Z,100000.68
2018-06-10T22:26:17.503Z,100002.06
2018-06-10T22:28:46.948Z,100004.91
2018-06-10T22:31:14.897Z,100015.80
2018-06-10T22:33:42.785Z,100024.41
2018-06-10T22:36:10.610Z,100021.13
2018-06-10T22:38:38.672Z,100024.41
2018-06-10T22:41:06.697Z,100015.47
2018-06-10T22:43:38.228Z,100012.67
2018-06-10T22:46:06.401Z,100016.17
2018-06-10T22:48:34.292Z,100020.28
2018-06-10T22:51:02.178Z,100023.41
2018-06-10T22:54:44.457Z,100023.30
2018-06-10T22:57:12.431Z,100023.00
2018-06-10T22:59:40.461Z,100022.42
2018-06-10T23:02:10.246Z,100018.30
2018-06-10T23:04:38.465Z,100015.20
2018-06-10T23:07:06.390Z,100007.19
2018-06-10T23:09:34.873Z,100007.72
2018-06-10T23:12:03.693Z,100001.02
2018-06-10T23:14:31.661Z,100000.77
2018-06-10T23:16:59.551Z,100004.69
2018-06-10T23:19:27.440Z,100008.73
2018-06-10T23:33:42.773Z,100007.89
2018-06-10T23:36:10.661Z,100005.61
2018-06-10T23:38:38.438Z,100004.16
2018-06-10T23:41:06.284Z,100008.58
2018-06-10T23:43:34.140Z,100004.73
2018-06-10T23:46:02.014Z,100000.32
2018-06-10T23:48:29.930Z,99995.52
2018-06-10T23:50:57.854Z,99996.52
2018-06-10T23:53:25.673Z,100004.59
2018-06-10T23:55:53.473Z,100002.19
2018-06-10T23:58:21.288Z,99991.03
